sensor_id;sensor_type;location;lat;lon;timestamp;pressure;altitude;pressure_sealevel;temperature;humidity
46045;BME280;31781;54.094;13.428;2023-07-30T00:00:49;100704.16;;;18.83;71.90
46045;BME280;31781;54.094;13.428;2023-07-30T00:02:56;100712.44;;;18.83;71.92
46045;BME280;31781;54.094;13.428;2023-07-30T00:04:58;100716.03;;;18.83;71.65
46045;BME280;31781;54.094;13.428;2023-07-30T00:06:59;100714.34;;;18.82;72.03
46045;BME280;31781;54.094;13.428;2023-07-30T00:09:01;100708.84;;;18.82;72.17
46045;BME280;31781;54.094;13.428;2023-07-30T00:11:03;100709.94;;;18.81;72.13
46045;BME280;31781;54.094;13.428;2023-07-30T00:13:04;100716.28;;;18.82;72.53
46045;BME280;31781;54.094;13.428;2023-07-30T00:15:07;100720.13;;;18.81;72.31
46045;BME280;31781;54.094;13.428;2023-07-30T00:17:09;100721.25;;;18.80;72.06
46045;BME280;31781;54.094;13.428;2023-07-30T00:19:12;100725.09;;;18.79;72.32
46045;BME280;31781;54.094;13.428;2023-07-30T00:21:13;100723.41;;;18.78;72.60
46045;BME280;31781;54.094;13.428;2023-07-30T00:23:15;100721.78;;;18.77;72.48
46045;BME280;31781;54.094;13.428;2023-07-30T00:25:17;100724.78;;;18.75;72.55
46045;BME280;31781;54.094;13.428;2023-07-30T00:27:19;100726.69;;;18.75;72.35
46045;BME280;31781;54.094;13.428;2023-07-30T00:29:24;100733.06;;;18.75;72.31
46045;BME280;31781;54.094;13.428;2023-07-30T00:31:25;100732.50;;;18.73;72.26
46045;BME280;31781;54.094;13.428;2023-07-30T00:33:27;100730.81;;;18.72;72.85
46045;BME280;31781;54.094;13.428;2023-07-30T00:35:31;100729.16;;;18.71;72.72
46045;BME280;31781;54.094;13.428;2023-07-30T00:37:32;100730.25;;;18.70;72.75
46045;BME280;31781;54.094;13.428;2023-07-30T00:39:34;100733.28;;;18.69;72.50
46045;BME280;31781;54.094;13.428;2023-07-30T00:41:36;100734.38;;;18.68;72.79
46045;BME280;31781;54.094;13.428;2023-07-30T00:43:38;100725.53;;;18.66;72.39
46045;BME280;31781;54.094;13.428;2023-07-30T00:45:41;100733.22;;;18.64;73.02
46045;BME280;31781;54.094;13.428;2023-07-30T00:47:44;100734.31;;;18.63;72.77
46045;BME280;31781;54.094;13.428;2023-07-30T00:49:46;100729.91;;;18.62;72.70
46045;BME280;31781;54.094;13.428;2023-07-30T00:51:49;100736.50;;;18.61;72.68
46045;BME280;31781;54.094;13.428;2023-07-30T00:53:51;100732.09;;;18.60;72.86
46045;BME280;31781;54.094;13.428;2023-07-30T00:55:53;100728.78;;;18.58;72.75
46045;BME280;31781;54.094;13.428;2023-07-30T00:57:56;100735.38;;;18.57;73.03
46045;BME280;31781;54.094;13.428;2023-07-30T00:59:58;100736.72;;;18.54;72.86
46045;BME280;31781;54.094;13.428;2023-07-30T01:02:00;100731.47;;;18.53;73.06
46045;BME280;31781;54.094;13.428;2023-07-30T01:04:03;100732.56;;;18.52;73.19
46045;BME280;31781;54.094;13.428;2023-07-30T01:06:05;100732.81;;;18.50;72.97
46045;BME280;31781;54.094;13.428;2023-07-30T01:08:08;100733.06;;;18.48;73.39
46045;BME280;31781;54.094;13.428;2023-07-30T01:10:10;100736.91;;;18.47;73.37
46045;BME280;31781;54.094;13.428;2023-07-30T01:12:13;100736.34;;;18.45;73.40
46045;BME280;31781;54.094;13.428;2023-07-30T01:14:16;100735.78;;;18.43;73.20
46045;BME280;31781;54.094;13.428;2023-07-30T01:16:17;100739.63;;;18.42;73.13
46045;BME280;31781;54.094;13.428;2023-07-30T01:18:19;100729.69;;;18.41;73.50
46045;BME280;31781;54.094;13.428;2023-07-30T01:20:21;100737.09;;;18.41;73.51
46045;BME280;31781;54.094;13.428;2023-07-30T01:22:24;100736.56;;;18.39;73.66
46045;BME280;31781;54.094;13.428;2023-07-30T01:24:26;100741.47;;;18.37;73.97
46045;BME280;31781;54.094;13.428;2023-07-30T01:26:32;100746.19;;;18.36;73.33
46045;BME280;31781;54.094;13.428;2023-07-30T01:28:37;100741.16;;;18.33;73.92
46045;BME280;31781;54.094;13.428;2023-07-30T01:30:41;100750.53;;;18.32;73.96
46045;BME280;31781;54.094;13.428;2023-07-30T01:32:44;100755.47;;;18.30;74.41
46045;BME280;31781;54.094;13.428;2023-07-30T01:34:49;100748.56;;;18.28;74.40
46045;BME280;31781;54.094;13.428;2023-07-30T01:36:54;100757.91;;;18.27;74.22
46045;BME280;31781;54.094;13.428;2023-07-30T01:39:03;100756.50;;;18.24;74.10
46045;BME280;31781;54.094;13.428;2023-07-30T01:41:06;100748.78;;;18.21;73.90
46045;BME280;31781;54.094;13.428;2023-07-30T01:43:08;100753.69;;;18.19;74.30
46045;BME280;31781;54.094;13.428;2023-07-30T01:45:09;100759.47;;;18.18;74.50
46045;BME280;31781;54.094;13.428;2023-07-30T01:47:11;100757.81;;;18.17;74.41
46045;BME280;31781;54.094;13.428;2023-07-30T01:49:12;100757.22;;;18.15;74.53
46045;BME280;31781;54.094;13.428;2023-07-30T01:51:14;100765.75;;;18.13;74.45
46045;BME280;31781;54.094;13.428;2023-07-30T01:53:16;100766.00;;;18.12;74.56
46045;BME280;31781;54.094;13.428;2023-07-30T01:55:19;100772.63;;;18.11;74.55
46045;BME280;31781;54.094;13.428;2023-07-30T01:57:20;100773.94;;;18.08;74.45
46045;BME280;31781;54.094;13.428;2023-07-30T01:59:22;100775.03;;;18.07;74.50
46045;BME280;31781;54.094;13.428;2023-07-30T02:01:23;100775.31;;;18.06;74.34
46045;BME280;31781;54.094;13.428;2023-07-30T02:03:25;100783.81;;;18.04;74.32
46045;BME280;31781;54.094;13.428;2023-07-30T02:05:27;100777.75;;;18.02;74.27
46045;BME280;31781;54.094;13.428;2023-07-30T02:07:29;100767.81;;;18.01;74.21
46045;BME280;31781;54.094;13.428;2023-07-30T02:09:30;100777.41;;;17.98;74.11
46045;BME280;31781;54.094;13.428;2023-07-30T02:11:33;100770.25;;;17.97;74.15
46045;BME280;31781;54.094;13.428;2023-07-30T02:13:35;100777.66;;;17.97;74.18
46045;BME280;31781;54.094;13.428;2023-07-30T02:15:40;100776.28;;;17.94;74.19
46045;BME280;31781;54.094;13.428;2023-07-30T02:17:42;100779.25;;;17.93;74.28
46045;BME280;31781;54.094;13.428;2023-07-30T02:19:44;100776.78;;;17.91;74.01
46045;BME280;31781;54.094;13.428;2023-07-30T02:21:45;100771.53;;;17.90;73.95
46045;BME280;31781;54.094;13.428;2023-07-30T02:23:47;100770.97;;;17.88;73.75
46045;BME280;31781;54.094;13.428;2023-07-30T02:25:48;100774.78;;;17.87;74.01
46045;BME280;31781;54.094;13.428;2023-07-30T02:27:51;100771.72;;;17.83;74.22
46045;BME280;31781;54.094;13.428;2023-07-30T02:29:53;100781.91;;;17.83;73.77
46045;BME280;31781;54.094;13.428;2023-07-30T02:31:55;100771.41;;;17.80;74.10
46045;BME280;31781;54.094;13.428;2023-07-30T02:33:57;100774.16;;;17.80;74.11
46045;BME280;31781;54.094;13.428;2023-07-30T02:35:58;100775.50;;;17.77;73.68
46045;BME280;31781;54.094;13.428;2023-07-30T02:38:00;100782.94;;;17.77;73.85
46045;BME280;31781;54.094;13.428;2023-07-30T02:40:02;100788.13;;;17.73;73.59
46045;BME280;31781;54.094;13.428;2023-07-30T02:42:04;100777.34;;;17.72;74.03
46045;BME280;31781;54.094;13.428;2023-07-30T02:44:07;100771.28;;;17.70;73.88
46045;BME280;31781;54.094;13.428;2023-07-30T02:46:09;100779.78;;;17.68;74.00
46045;BME280;31781;54.094;13.428;2023-07-30T02:48:10;100783.59;;;17.67;74.05
46045;BME280;31781;54.094;13.428;2023-07-30T02:50:12;100774.78;;;17.65;73.99
46045;BME280;31781;54.094;13.428;2023-07-30T02:52:14;100790.97;;;17.62;73.92
46045;BME280;31781;54.094;13.428;2023-07-30T02:54:15;100790.38;;;17.60;74.17
46045;BME280;31781;54.094;13.428;2023-07-30T02:56:17;100792.56;;;17.58;73.78
46045;BME280;31781;54.094;13.428;2023-07-30T02:58:18;100796.63;;;17.55;73.96
46045;BME280;31781;54.094;13.428;2023-07-30T03:00:21;100796.88;;;17.53;74.19
46045;BME280;31781;54.094;13.428;2023-07-30T03:02:23;100796.28;;;17.51;73.65
46045;BME280;31781;54.094;13.428;2023-07-30T03:04:25;100795.72;;;17.49;73.64
46045;BME280;31781;54.094;13.428;2023-07-30T03:06:27;100800.66;;;17.47;73.81
46045;BME280;31781;54.094;13.428;2023-07-30T03:08:28;100801.72;;;17.46;73.85
46045;BME280;31781;54.094;13.428;2023-07-30T03:10:30;100800.06;;;17.45;73.91
46045;BME280;31781;54.094;13.428;2023-07-30T03:12:32;100800.31;;;17.44;74.15
46045;BME280;31781;54.094;13.428;2023-07-30T03:14:34;100789.00;;;17.40;74.06
46045;BME280;31781;54.094;13.428;2023-07-30T03:16:37;100790.91;;;17.40;73.92
46045;BME280;31781;54.094;13.428;2023-07-30T03:18:39;100791.16;;;17.38;73.66
46045;BME280;31781;54.094;13.428;2023-07-30T03:20:40;100795.81;;;17.38;73.89
46045;BME280;31781;54.094;13.428;2023-07-30T03:22:42;100787.00;;;17.36;74.07
46045;BME280;31781;54.094;13.428;2023-07-30T03:24:45;100798.25;;;17.34;73.98
46045;BME280;31781;54.094;13.428;2023-07-30T03:26:47;100794.94;;;17.32;73.99
46045;BME280;31781;54.094;13.428;2023-07-30T03:28:49;100794.94;;;17.32;74.00
46045;BME280;31781;54.094;13.428;2023-07-30T03:30:51;100790.50;;;17.31;74.06
46045;BME280;31781;54.094;13.428;2023-07-30T03:32:54;100792.69;;;17.29;74.19
46045;BME280;31781;54.094;13.428;2023-07-30T03:34:55;100789.09;;;17.29;73.78
46045;BME280;31781;54.094;13.428;2023-07-30T03:36:57;100790.19;;;17.28;73.88
46045;BME280;31781;54.094;13.428;2023-07-30T03:39:01;100789.34;;;17.27;73.97
46045;BME280;31781;54.094;13.428;2023-07-30T03:41:04;100797.81;;;17.26;74.38
46045;BME280;31781;54.094;13.428;2023-07-30T03:43:06;100800.56;;;17.26;73.97
46045;BME280;31781;54.094;13.428;2023-07-30T03:45:08;100792.84;;;17.23;74.20
46045;BME280;31781;54.094;13.428;2023-07-30T03:47:10;100795.59;;;17.23;74.02
46045;BME280;31781;54.094;13.428;2023-07-30T03:49:13;100793.94;;;17.22;74.53
46045;BME280;31781;54.094;13.428;2023-07-30T03:51:14;100793.09;;;17.21;74.30
46045;BME280;31781;54.094;13.428;2023-07-30T03:53:16;100806.06;;;17.26;74.35
46045;BME280;31781;54.094;13.428;2023-07-30T03:55:18;100801.66;;;17.41;73.79
46045;BME280;31781;54.094;13.428;2023-07-30T03:57:20;100797.44;;;17.56;73.85
46045;BME280;31781;54.094;13.428;2023-07-30T03:59:22;100794.28;;;17.64;73.25
46045;BME280;31781;54.094;13.428;2023-07-30T04:01:24;100807.72;;;17.60;73.12
46045;BME280;31781;54.094;13.428;2023-07-30T04:03:26;100795.81;;;17.55;72.93
46045;BME280;31781;54.094;13.428;2023-07-30T04:05:29;100801.78;;;17.51;73.42
46045;BME280;31781;54.094;13.428;2023-07-30T04:07:31;100803.47;;;17.52;73.35
46045;BME280;31781;54.094;13.428;2023-07-30T04:09:33;100804.81;;;17.50;73.54
46045;BME280;31781;54.094;13.428;2023-07-30T04:11:35;100809.22;;;17.51;73.65
46045;BME280;31781;54.094;13.428;2023-07-30T04:13:37;100805.88;;;17.49;73.86
46045;BME280;31781;54.094;13.428;2023-07-30T04:15:39;100810.31;;;17.50;73.69
46045;BME280;31781;54.094;13.428;2023-07-30T04:17:40;100805.88;;;17.49;73.77
46045;BME280;31781;54.094;13.428;2023-07-30T04:19:42;100811.16;;;17.50;74.05
46045;BME280;31781;54.094;13.428;2023-07-30T04:21:45;100809.22;;;17.51;73.74
46045;BME280;31781;54.094;13.428;2023-07-30T04:23:47;100814.47;;;17.52;73.74
46045;BME280;31781;54.094;13.428;2023-07-30T04:25:49;100807.88;;;17.53;74.24
46045;BME280;31781;54.094;13.428;2023-07-30T04:27:50;100814.59;;;17.58;73.96
46045;BME280;31781;54.094;13.428;2023-07-30T04:29:52;100817.91;;;17.60;74.00
46045;BME280;31781;54.094;13.428;2023-07-30T04:31:53;100822.09;;;17.62;74.29
46045;BME280;31781;54.094;13.428;2023-07-30T04:33:55;100825.16;;;17.66;74.78
46045;BME280;31781;54.094;13.428;2023-07-30T04:35:59;100825.22;;;17.71;74.51
46045;BME280;31781;54.094;13.428;2023-07-30T04:38:02;100825.53;;;17.74;74.32
46045;BME280;31781;54.094;13.428;2023-07-30T04:40:04;100826.69;;;17.78;74.68
46045;BME280;31781;54.094;13.428;2023-07-30T04:42:06;100825.94;;;17.83;74.72
46045;BME280;31781;54.094;13.428;2023-07-30T04:44:08;100822.66;;;17.86;74.23
46045;BME280;31781;54.094;13.428;2023-07-30T04:46:09;100822.75;;;17.91;74.30
46045;BME280;31781;54.094;13.428;2023-07-30T04:48:11;100822.00;;;17.95;74.10
46045;BME280;31781;54.094;13.428;2023-07-30T04:50:13;100822.31;;;17.99;74.18
46045;BME280;31781;54.094;13.428;2023-07-30T04:52:15;100831.72;;;18.03;74.17
46045;BME280;31781;54.094;13.428;2023-07-30T04:54:18;100822.09;;;18.06;74.28
46045;BME280;31781;54.094;13.428;2023-07-30T04:56:19;100826.25;;;18.08;74.47
46045;BME280;31781;54.094;13.428;2023-07-30T04:58:21;100834.00;;;18.11;74.29
46045;BME280;31781;54.094;13.428;2023-07-30T05:00:23;100829.94;;;18.14;73.88
46045;BME280;31781;54.094;13.428;2023-07-30T05:02:24;100838.75;;;18.16;74.09
46045;BME280;31781;54.094;13.428;2023-07-30T05:04:26;100828.56;;;18.16;73.65
46045;BME280;31781;54.094;13.428;2023-07-30T05:06:28;100833.00;;;18.17;74.09
46045;BME280;31781;54.094;13.428;2023-07-30T05:08:30;100834.41;;;18.20;73.98
46045;BME280;31781;54.094;13.428;2023-07-30T05:10:34;100838.81;;;18.21;74.20
46045;BME280;31781;54.094;13.428;2023-07-30T05:12:35;100836.91;;;18.21;73.87
46045;BME280;31781;54.094;13.428;2023-07-30T05:14:37;100833.63;;;18.24;73.70
46045;BME280;31781;54.094;13.428;2023-07-30T05:16:39;100839.13;;;18.24;73.40
46045;BME280;31781;54.094;13.428;2023-07-30T05:18:41;100832.53;;;18.25;73.65
46045;BME280;31781;54.094;13.428;2023-07-30T05:20:46;100839.69;;;18.26;73.72
46045;BME280;31781;54.094;13.428;2023-07-30T05:22:47;100839.44;;;18.28;73.65
46045;BME280;31781;54.094;13.428;2023-07-30T05:24:49;100841.13;;;18.29;73.59
46045;BME280;31781;54.094;13.428;2023-07-30T05:26:52;100841.44;;;18.32;73.73
46045;BME280;31781;54.094;13.428;2023-07-30T05:28:54;100836.25;;;18.36;73.75
46045;BME280;31781;54.094;13.428;2023-07-30T05:30:56;100840.41;;;18.38;73.94
46045;BME280;31781;54.094;13.428;2023-07-30T05:32:57;100841.56;;;18.42;73.72
46045;BME280;31781;54.094;13.428;2023-07-30T05:34:59;100839.13;;;18.46;73.42
46045;BME280;31781;54.094;13.428;2023-07-30T05:37:00;100827.56;;;18.49;73.55
46045;BME280;31781;54.094;13.428;2023-07-30T05:39:02;100827.66;;;18.54;72.95
46045;BME280;31781;54.094;13.428;2023-07-30T05:41:04;100827.13;;;18.57;72.77
46045;BME280;31781;54.094;13.428;2023-07-30T05:43:07;100820.84;;;18.62;72.75
46045;BME280;31781;54.094;13.428;2023-07-30T05:45:09;100827.50;;;18.66;73.02
46045;BME280;31781;54.094;13.428;2023-07-30T05:47:11;100834.97;;;18.70;72.00
46045;BME280;31781;54.094;13.428;2023-07-30T05:49:13;100828.97;;;18.73;71.80
46045;BME280;31781;54.094;13.428;2023-07-30T05:51:14;100828.44;;;18.76;72.04
46045;BME280;31781;54.094;13.428;2023-07-30T05:53:16;100829.59;;;18.80;72.29
46045;BME280;31781;54.094;13.428;2023-07-30T05:55:17;100821.88;;;18.82;71.52
46045;BME280;31781;54.094;13.428;2023-07-30T05:57:19;100822.47;;;18.84;71.72
46045;BME280;31781;54.094;13.428;2023-07-30T05:59:22;100816.66;;;18.86;71.06
46045;BME280;31781;54.094;13.428;2023-07-30T06:01:24;100821.09;;;18.87;71.33
46045;BME280;31781;54.094;13.428;2023-07-30T06:03:26;100816.72;;;18.91;71.39
46045;BME280;31781;54.094;13.428;2023-07-30T06:05:27;100821.47;;;18.95;71.48
46045;BME280;31781;54.094;13.428;2023-07-30T06:07:29;100824.25;;;19.01;71.53
46045;BME280;31781;54.094;13.428;2023-07-30T06:09:31;100818.50;;;19.07;71.72
46045;BME280;31781;54.094;13.428;2023-07-30T06:11:32;100814.72;;;19.13;71.18
46045;BME280;31781;54.094;13.428;2023-07-30T06:13:34;100816.16;;;19.21;71.07
46045;BME280;31781;54.094;13.428;2023-07-30T06:15:37;100816.22;;;19.31;71.73
46045;BME280;31781;54.094;13.428;2023-07-30T06:17:38;100814.63;;;19.40;70.73
46045;BME280;31781;54.094;13.428;2023-07-30T06:19:40;100813.06;;;19.49;70.17
46045;BME280;31781;54.094;13.428;2023-07-30T06:21:42;100821.41;;;19.59;68.83
46045;BME280;31781;54.094;13.428;2023-07-30T06:23:43;100818.72;;;19.69;68.08
46045;BME280;31781;54.094;13.428;2023-07-30T06:25:45;100817.94;;;19.79;69.59
46045;BME280;31781;54.094;13.428;2023-07-30T06:27:46;100821.84;;;19.88;68.59
46045;BME280;31781;54.094;13.428;2023-07-30T06:29:48;100816.38;;;19.98;68.26
46045;BME280;31781;54.094;13.428;2023-07-30T06:31:51;100813.66;;;20.08;67.79
46045;BME280;31781;54.094;13.428;2023-07-30T06:33:52;100822.53;;;20.20;68.17
46045;BME280;31781;54.094;13.428;2023-07-30T06:35:54;100819.84;;;20.30;66.50
46045;BME280;31781;54.094;13.428;2023-07-30T06:37:56;100825.13;;;20.42;66.08
46045;BME280;31781;54.094;13.428;2023-07-30T06:39:57;100821.84;;;20.55;65.88
46045;BME280;31781;54.094;13.428;2023-07-30T06:41:59;100813.00;;;20.63;65.89
46045;BME280;31781;54.094;13.428;2023-07-30T06:44:01;100812.47;;;20.71;66.00
46045;BME280;31781;54.094;13.428;2023-07-30T06:46:03;100818.84;;;20.82;63.92
46045;BME280;31781;54.094;13.428;2023-07-30T06:48:06;100811.38;;;20.93;64.43
46045;BME280;31781;54.094;13.428;2023-07-30T06:50:07;100811.41;;;20.98;63.22
46045;BME280;31781;54.094;13.428;2023-07-30T06:52:09;100819.16;;;21.06;63.88
46045;BME280;31781;54.094;13.428;2023-07-30T06:54:10;100815.84;;;21.14;63.46
46045;BME280;31781;54.094;13.428;2023-07-30T06:56:12;100805.31;;;21.26;62.83
46045;BME280;31781;54.094;13.428;2023-07-30T06:58:14;100812.53;;;21.32;62.35
46045;BME280;31781;54.094;13.428;2023-07-30T07:00:16;100805.56;;;21.45;62.92
46045;BME280;31781;54.094;13.428;2023-07-30T07:02:17;100810.56;;;21.58;62.79
46045;BME280;31781;54.094;13.428;2023-07-30T07:04:21;100810.53;;;21.68;63.16
46045;BME280;31781;54.094;13.428;2023-07-30T07:06:22;100807.72;;;21.78;61.65
46045;BME280;31781;54.094;13.428;2023-07-30T07:08:24;100819.59;;;21.89;61.31
46045;BME280;31781;54.094;13.428;2023-07-30T07:10:26;100815.69;;;22.00;59.54
46045;BME280;31781;54.094;13.428;2023-07-30T07:12:27;100803.50;;;22.06;59.90
46045;BME280;31781;54.094;13.428;2023-07-30T07:14:29;100812.03;;;22.14;59.61
46045;BME280;31781;54.094;13.428;2023-07-30T07:16:31;100811.19;;;22.19;58.24
46045;BME280;31781;54.094;13.428;2023-07-30T07:18:32;100803.41;;;22.26;59.33
46045;BME280;31781;54.094;13.428;2023-07-30T07:20:35;100809.75;;;22.31;58.75
46045;BME280;31781;54.094;13.428;2023-07-30T07:22:37;100811.38;;;22.38;58.08
46045;BME280;31781;54.094;13.428;2023-07-30T07:24:39;100808.59;;;22.43;58.40
46045;BME280;31781;54.094;13.428;2023-07-30T07:26:40;100802.47;;;22.46;57.50
46045;BME280;31781;54.094;13.428;2023-07-30T07:28:42;100805.50;;;22.49;57.74
46045;BME280;31781;54.094;13.428;2023-07-30T07:30:44;100807.69;;;22.52;57.33
46045;BME280;31781;54.094;13.428;2023-07-30T07:32:45;100805.16;;;22.56;58.08
46045;BME280;31781;54.094;13.428;2023-07-30T07:34:48;100807.66;;;22.57;57.48
46045;BME280;31781;54.094;13.428;2023-07-30T07:36:51;100806.53;;;22.58;57.45
46045;BME280;31781;54.094;13.428;2023-07-30T07:38:53;100812.91;;;22.59;58.78
46045;BME280;31781;54.094;13.428;2023-07-30T07:40:55;100810.13;;;22.59;59.60
46045;BME280;31781;54.094;13.428;2023-07-30T07:42:56;100807.94;;;22.56;58.81
46045;BME280;31781;54.094;13.428;2023-07-30T07:44:58;100819.88;;;22.56;58.31
46045;BME280;31781;54.094;13.428;2023-07-30T07:47:00;100814.91;;;22.53;58.50
46045;BME280;31781;54.094;13.428;2023-07-30T07:49:01;100812.41;;;22.52;58.87
46045;BME280;31781;54.094;13.428;2023-07-30T07:51:03;100820.19;;;22.50;58.84
46045;BME280;31781;54.094;13.428;2023-07-30T07:53:06;100814.38;;;22.46;60.55
46045;BME280;31781;54.094;13.428;2023-07-30T07:55:08;100814.94;;;22.43;61.20
46045;BME280;31781;54.094;13.428;2023-07-30T07:57:10;100816.66;;;22.39;61.25
46045;BME280;31781;54.094;13.428;2023-07-30T07:59:11;100812.78;;;22.35;61.81
46045;BME280;31781;54.094;13.428;2023-07-30T08:01:13;100813.63;;;22.30;62.40
46045;BME280;31781;54.094;13.428;2023-07-30T08:03:15;100816.41;;;22.25;63.49
46045;BME280;31781;54.094;13.428;2023-07-30T08:05:16;100816.16;;;22.22;63.65
46045;BME280;31781;54.094;13.428;2023-07-30T08:07:18;100816.47;;;22.20;63.36
46045;BME280;31781;54.094;13.428;2023-07-30T08:09:21;100821.44;;;22.18;62.65
46045;BME280;31781;54.094;13.428;2023-07-30T08:11:23;100812.03;;;22.19;63.71
46045;BME280;31781;54.094;13.428;2023-07-30T08:13:24;100816.16;;;22.22;63.30
46045;BME280;31781;54.094;13.428;2023-07-30T08:15:26;100810.88;;;22.25;62.49
46045;BME280;31781;54.094;13.428;2023-07-30T08:17:28;100813.06;;;22.28;62.30
46045;BME280;31781;54.094;13.428;2023-07-30T08:19:30;100815.28;;;22.31;62.73
46045;BME280;31781;54.094;13.428;2023-07-30T08:21:32;100814.16;;;22.32;61.68
46045;BME280;31781;54.094;13.428;2023-07-30T08:23:34;100810.28;;;22.33;60.89
46045;BME280;31781;54.094;13.428;2023-07-30T08:25:37;100810.53;;;22.37;60.71
46045;BME280;31781;54.094;13.428;2023-07-30T08:27:38;100808.03;;;22.41;59.79
46045;BME280;31781;54.094;13.428;2023-07-30T08:29:40;100807.16;;;22.50;59.79
46045;BME280;31781;54.094;13.428;2023-07-30T08:31:42;100814.91;;;22.53;61.35
46045;BME280;31781;54.094;13.428;2023-07-30T08:33:44;100820.13;;;22.60;61.64
46045;BME280;31781;54.094;13.428;2023-07-30T08:35:45;100813.41;;;22.66;61.59
46045;BME280;31781;54.094;13.428;2023-07-30T08:37:47;100813.41;;;22.71;62.09
46045;BME280;31781;54.094;13.428;2023-07-30T08:39:49;100821.09;;;22.84;61.89
46045;BME280;31781;54.094;13.428;2023-07-30T08:41:52;100818.88;;;22.86;61.59
46045;BME280;31781;54.094;13.428;2023-07-30T08:43:54;100816.03;;;22.91;61.55
46045;BME280;31781;54.094;13.428;2023-07-30T08:45:56;100819.09;;;22.95;61.38
46045;BME280;31781;54.094;13.428;2023-07-30T08:47:57;100813.78;;;22.98;61.54
46045;BME280;31781;54.094;13.428;2023-07-30T08:49:59;100817.06;;;23.05;60.23
46045;BME280;31781;54.094;13.428;2023-07-30T08:52:03;100817.31;;;23.09;61.36
46045;BME280;31781;54.094;13.428;2023-07-30T08:54:05;100820.31;;;23.12;60.69
46045;BME280;31781;54.094;13.428;2023-07-30T08:56:09;100820.25;;;23.17;60.60
46045;BME280;31781;54.094;13.428;2023-07-30T08:58:12;100823.81;;;23.28;60.77
46045;BME280;31781;54.094;13.428;2023-07-30T09:00:15;100823.50;;;23.29;59.83
46045;BME280;31781;54.094;13.428;2023-07-30T09:02:24;100826.69;;;23.47;59.64
46045;BME280;31781;54.094;13.428;2023-07-30T09:04:29;100828.00;;;23.54;59.84
46045;BME280;31781;54.094;13.428;2023-07-30T09:06:34;100826.66;;;23.52;58.71
46045;BME280;31781;54.094;13.428;2023-07-30T09:08:36;100824.97;;;23.51;58.91
46045;BME280;31781;54.094;13.428;2023-07-30T09:10:38;100827.44;;;23.57;59.04
46045;BME280;31781;54.094;13.428;2023-07-30T09:12:39;100823.72;;;23.67;58.99
46045;BME280;31781;54.094;13.428;2023-07-30T09:14:43;100822.75;;;23.76;57.75
46045;BME280;31781;54.094;13.428;2023-07-30T09:16:44;100824.03;;;23.89;57.68
46045;BME280;31781;54.094;13.428;2023-07-30T09:18:46;100820.06;;;23.95;57.24
46045;BME280;31781;54.094;13.428;2023-07-30T09:20:52;100826.44;;;23.96;56.61
46045;BME280;31781;54.094;13.428;2023-07-30T09:22:56;100828.84;;;24.02;57.54
46045;BME280;31781;54.094;13.428;2023-07-30T09:25:00;100821.78;;;24.15;55.99
46045;BME280;31781;54.094;13.428;2023-07-30T09:27:03;100824.22;;;24.21;54.43
46045;BME280;31781;54.094;13.428;2023-07-30T09:29:07;100819.66;;;24.31;54.72
46045;BME280;31781;54.094;13.428;2023-07-30T09:31:10;100815.91;;;24.40;54.16
46045;BME280;31781;54.094;13.428;2023-07-30T09:33:23;100814.03;;;24.54;54.88
46045;BME280;31781;54.094;13.428;2023-07-30T09:35:25;100823.59;;;24.67;54.76
46045;BME280;31781;54.094;13.428;2023-07-30T09:37:27;100816.97;;;24.82;53.55
46045;BME280;31781;54.094;13.428;2023-07-30T09:39:29;100826.22;;;24.96;52.83
46045;BME280;31781;54.094;13.428;2023-07-30T09:41:30;100820.94;;;25.13;52.66
46045;BME280;31781;54.094;13.428;2023-07-30T09:43:32;100820.38;;;25.30;53.15
46045;BME280;31781;54.094;13.428;2023-07-30T09:45:35;100825.69;;;25.45;52.91
46045;BME280;31781;54.094;13.428;2023-07-30T09:47:38;100822.66;;;25.60;53.72
46045;BME280;31781;54.094;13.428;2023-07-30T09:49:40;100830.38;;;25.63;51.80
46045;BME280;31781;54.094;13.428;2023-07-30T09:51:42;100820.38;;;25.62;51.13
46045;BME280;31781;54.094;13.428;2023-07-30T09:53:44;100819.03;;;25.59;50.64
46045;BME280;31781;54.094;13.428;2023-07-30T09:55:46;100830.19;;;25.59;51.05
46045;BME280;31781;54.094;13.428;2023-07-30T09:57:47;100819.97;;;25.68;50.29
46045;BME280;31781;54.094;13.428;2023-07-30T09:59:49;100822.38;;;25.75;50.32
46045;BME280;31781;54.094;13.428;2023-07-30T10:01:52;100821.13;;;25.81;50.65
46045;BME280;31781;54.094;13.428;2023-07-30T10:03:57;100819.56;;;25.89;50.89
46045;BME280;31781;54.094;13.428;2023-07-30T10:06:03;100819.78;;;25.92;49.91
46045;BME280;31781;54.094;13.428;2023-07-30T10:08:09;100814.28;;;25.87;49.84
46045;BME280;31781;54.094;13.428;2023-07-30T10:10:12;100806.75;;;25.88;48.07
46045;BME280;31781;54.094;13.428;2023-07-30T10:12:16;100815.03;;;25.93;49.45
46045;BME280;31781;54.094;13.428;2023-07-30T10:14:21;100819.50;;;25.94;49.45
46045;BME280;31781;54.094;13.428;2023-07-30T10:16:25;100817.94;;;26.01;49.76
46045;BME280;31781;54.094;13.428;2023-07-30T10:18:33;100814.31;;;26.01;49.80
46045;BME280;31781;54.094;13.428;2023-07-30T10:20:37;100812.66;;;26.00;48.01
46045;BME280;31781;54.094;13.428;2023-07-30T10:22:39;100815.75;;;26.12;48.22
46045;BME280;31781;54.094;13.428;2023-07-30T10:24:41;100821.78;;;26.19;47.41
46045;BME280;31781;54.094;13.428;2023-07-30T10:26:56;100824.66;;;26.28;47.28
46045;BME280;31781;54.094;13.428;2023-07-30T10:29:15;100821.16;;;26.22;49.14
46045;BME280;31781;54.094;13.428;2023-07-30T10:31:17;100829.63;;;26.31;47.56